sensor_id;sensor_type;location;lat;lon;timestamp;P1;P2;P0
47711;PMS7003;57457;51.634;5.886;2023-09-18T00:02:12;24.73;21.16;14.72
47711;PMS7003;57457;51.634;5.886;2023-09-18T00:15:32;21.25;20.17;14.07
47711;PMS7003;57457;51.634;5.886;2023-09-18T00:28:51;23.77;19.52;13.53
47711;PMS7003;57457;51.634;5.886;2023-09-18T00:42:11;20.53;19.63;14.07
47711;PMS7003;57457;51.634;5.886;2023-09-18T00:55:30;18.61;18.65;13.63
47711;PMS7003;57457;51.634;5.886;2023-09-18T01:08:50;19.21;19.19;13.42
47711;PMS7003;57457;51.634;5.886;2023-09-18T01:22:10;19.09;18.1;12.65
47711;PMS7003;57457;51.634;5.886;2023-09-18T01:35:29;15.73;16.9;11.56
47711;PMS7003;57457;51.634;5.886;2023-09-18T01:48:49;16.69;14.62;10.69
47711;PMS7003;57457;51.634;5.886;2023-09-18T02:02:08;12.85;13.31;9.71
47711;PMS7003;57457;51.634;5.886;2023-09-18T02:15:28;12.85;13.42;9.82
47711;PMS7003;57457;51.634;5.886;2023-09-18T02:28:48;10.69;12.54;9.38
47711;PMS7003;57457;51.634;5.886;2023-09-18T02:42:07;11.65;12.11;8.73
47711;PMS7003;57457;51.634;5.886;2023-09-18T02:55:27;10.69;12.33;8.95
47711;PMS7003;57457;51.634;5.886;2023-09-18T03:08:46;12.49;11.24;8.18
47711;PMS7003;57457;51.634;5.886;2023-09-18T03:22:06;9.25;11.56;8.51
47711;PMS7003;57457;51.634;5.886;2023-09-18T03:35:26;9.13;11.35;7.75
47711;PMS7003;57457;51.634;5.886;2023-09-18T03:48:45;11.05;11.02;7.97
47711;PMS7003;57457;51.634;5.886;2023-09-18T04:02:05;12.97;10.8;7.86
47711;PMS7003;57457;51.634;5.886;2023-09-18T04:15:25;8.05;10.36;7.09
47711;PMS7003;57457;51.634;5.886;2023-09-18T04:42:04;6.13;8.29;6.33
47711;PMS7003;57457;51.634;5.886;2023-09-18T04:55:23;6.25;8.62;6.11
47711;PMS7003;57457;51.634;5.886;2023-09-18T05:08:43;7.69;8.4;5.68
47711;PMS7003;57457;51.634;5.886;2023-09-18T05:22:03;8.77;8.95;6.0
47711;PMS7003;57457;51.634;5.886;2023-09-18T05:35:22;7.33;7.09;5.13
47711;PMS7003;57457;51.634;5.886;2023-09-18T05:48:42;6.85;5.79;4.26
47711;PMS7003;57457;51.634;5.886;2023-09-18T06:02:02;1.2;4.37;3.17
47711;PMS7003;57457;51.634;5.886;2023-09-18T06:15:21;3.48;4.48;3.17
47711;PMS7003;57457;51.634;5.886;2023-09-18T06:28:41;2.88;4.48;3.17
47711;PMS7003;57457;51.634;5.886;2023-09-18T06:42:00;3.6;4.7;3.39
47711;PMS7003;57457;51.634;5.886;2023-09-18T06:55:20;0.72;3.06;2.19
47711;PMS7003;57457;51.634;5.886;2023-09-18T07:08:40;0.01;2.3;1.75
47711;PMS7003;57457;51.634;5.886;2023-09-18T07:21:59;1.68;2.84;1.86
47711;PMS7003;57457;51.634;5.886;2023-09-18T07:35:19;3.0;2.3;1.75
47711;PMS7003;57457;51.634;5.886;2023-09-18T07:48:39;0.01;2.3;1.54
47711;PMS7003;57457;51.634;5.886;2023-09-18T08:01:58;0.01;2.41;1.64
47711;PMS7003;57457;51.634;5.886;2023-09-18T08:15:18;0.01;2.41;1.64
47711;PMS7003;57457;51.634;5.886;2023-09-18T08:28:37;0.12;2.95;1.86
47711;PMS7003;57457;51.634;5.886;2023-09-18T08:41:57;0.01;2.3;1.75
47711;PMS7003;57457;51.634;5.886;2023-09-18T08:55:17;0.01;2.52;1.54
47711;PMS7003;57457;51.634;5.886;2023-09-18T09:08:36;1.08;2.73;1.75
47711;PMS7003;57457;51.634;5.886;2023-09-18T09:21:56;0.6;2.62;1.64
47711;PMS7003;57457;51.634;5.886;2023-09-18T09:48:35;2.88;2.95;1.86
47711;PMS7003;57457;51.634;5.886;2023-09-18T10:01:55;0.01;3.06;2.41
47711;PMS7003;57457;51.634;5.886;2023-09-18T10:15:15;1.08;2.52;1.86
47711;PMS7003;57457;51.634;5.886;2023-09-18T10:41:54;1.8;3.06;1.97
47711;PMS7003;57457;51.634;5.886;2023-09-18T10:55:13;0.01;2.73;1.97
47711;PMS7003;57457;51.634;5.886;2023-09-18T11:21:53;0.01;2.95;2.3
47711;PMS7003;57457;51.634;5.886;2023-09-18T11:35:12;0.01;2.84;2.3
47711;PMS7003;57457;51.634;5.886;2023-09-18T11:48:32;3.48;3.28;2.41
47711;PMS7003;57457;51.634;5.886;2023-09-18T12:01:52;1.8;3.61;2.3
47711;PMS7003;57457;51.634;5.886;2023-09-18T12:15:11;0.48;3.61;2.41
47711;PMS7003;57457;51.634;5.886;2023-09-18T12:28:31;1.08;3.39;2.41
47711;PMS7003;57457;51.634;5.886;2023-09-18T12:41:50;1.68;3.17;2.08
47711;PMS7003;57457;51.634;5.886;2023-09-18T12:55:10;0.24;2.95;2.3
47711;PMS7003;57457;51.634;5.886;2023-09-18T13:08:30;2.4;3.82;2.52
47711;PMS7003;57457;51.634;5.886;2023-09-18T13:21:49;0.12;3.06;1.86
47711;PMS7003;57457;51.634;5.886;2023-09-18T13:35:09;0.84;2.52;1.97
47711;PMS7003;57457;51.634;5.886;2023-09-18T13:48:29;0.01;2.62;1.97
47711;PMS7003;57457;51.634;5.886;2023-09-18T14:15:08;1.44;2.95;1.86
47711;PMS7003;57457;51.634;5.886;2023-09-18T14:28:28;0.01;2.95;1.75
47711;PMS7003;57457;51.634;5.886;2023-09-18T14:41:47;0.01;2.84;1.86
47711;PMS7003;57457;51.634;5.886;2023-09-18T14:55:07;0.01;2.84;1.75
47711;PMS7003;57457;51.634;5.886;2023-09-18T15:21:46;0.01;2.52;1.75
47711;PMS7003;57457;51.634;5.886;2023-09-18T15:35:06;0.01;2.3;1.75
47711;PMS7003;57457;51.634;5.886;2023-09-18T15:48:25;0.01;2.19;1.54
47711;PMS7003;57457;51.634;5.886;2023-09-18T16:01:45;0.01;1.54;1.21
47711;PMS7003;57457;51.634;5.886;2023-09-18T16:15:04;0.0;1.97;1.32
47711;PMS7003;57457;51.634;5.886;2023-09-18T16:28:24;0.01;1.86;1.54
47711;PMS7003;57457;51.634;5.886;2023-09-18T16:41:44;0.01;1.97;1.32
47711;PMS7003;57457;51.634;5.886;2023-09-18T16:55:03;1.08;2.41;1.64
47711;PMS7003;57457;51.634;5.886;2023-09-18T17:08:23;0.01;2.52;1.64
47711;PMS7003;57457;51.634;5.886;2023-09-18T17:35:02;0.24;3.39;2.62
47711;PMS7003;57457;51.634;5.886;2023-09-18T17:48:22;0.84;4.04;2.62
47711;PMS7003;57457;51.634;5.886;2023-09-18T18:01:41;0.48;3.28;2.52
47711;PMS7003;57457;51.634;5.886;2023-09-18T18:15:01;3.97;4.48;3.06
47711;PMS7003;57457;51.634;5.886;2023-09-18T18:41:40;1.2;4.37;3.17
47711;PMS7003;57457;51.634;5.886;2023-09-18T18:55:00;1.68;4.15;3.17
47711;PMS7003;57457;51.634;5.886;2023-09-18T19:08:19;1.2;4.37;3.06
47711;PMS7003;57457;51.634;5.886;2023-09-18T19:21:39;1.2;4.37;2.95
47711;PMS7003;57457;51.634;5.886;2023-09-18T19:48:18;0.6;3.82;2.73
47711;PMS7003;57457;51.634;5.886;2023-09-18T20:01:38;0.36;3.39;2.41
47711;PMS7003;57457;51.634;5.886;2023-09-18T20:28:17;3.73;3.39;2.08
47711;PMS7003;57457;51.634;5.886;2023-09-18T20:41:37;2.4;3.28;1.75
47711;PMS7003;57457;51.634;5.886;2023-09-18T20:54:57;0.24;2.84;1.75
47711;PMS7003;57457;51.634;5.886;2023-09-18T21:08:16;0.6;3.17;1.75
47711;PMS7003;57457;51.634;5.886;2023-09-18T21:21:36;4.45;3.28;1.54
47711;PMS7003;57457;51.634;5.886;2023-09-18T21:34:55;2.28;3.17;1.75
47711;PMS7003;57457;51.634;5.886;2023-09-18T21:48:15;1.8;3.17;1.97
47711;PMS7003;57457;51.634;5.886;2023-09-18T22:01:35;5.29;3.06;1.75
47711;PMS7003;57457;51.634;5.886;2023-09-18T22:14:54;2.04;2.95;1.64
47711;PMS7003;57457;51.634;5.886;2023-09-18T22:28:14;1.2;3.28;1.75
47711;PMS7003;57457;51.634;5.886;2023-09-18T22:41:34;3.0;3.5;1.97
47711;PMS7003;57457;51.634;5.886;2023-09-18T22:54:53;1.08;3.39;1.86
47711;PMS7003;57457;51.634;5.886;2023-09-18T23:08:13;4.21;3.5;1.75
47711;PMS7003;57457;51.634;5.886;2023-09-18T23:21:32;4.69;3.39;1.86
47711;PMS7003;57457;51.634;5.886;2023-09-18T23:34:52;1.92;3.39;1.64
47711;PMS7003;57457;51.634;5.886;2023-09-18T23:48:12;6.73;3.82;2.19
